createdAt,value
2022-08-02T00:00:35.420Z,138.27
2022-08-02T00:03:02.452Z,123.20
2022-08-02T00:05:29.594Z,131.18
2022-08-02T00:07:56.818Z,128.10
2022-08-02T00:10:24.375Z,127.35
2022-08-02T00:12:51.852Z,127.47
2022-08-02T00:15:22.907Z,128.10
2022-08-02T00:17:50.495Z,129.10
2022-08-02T00:20:17.768Z,130.70
2022-08-02T00:22:44.907Z,129.65
2022-08-02T00:25:12.068Z,127.15
2022-08-02T00:27:39.275Z,133.07
2022-08-02T00:30:07.056Z,113.60
2022-08-02T00:32:34.210Z,108.75
2022-08-02T00:35:01.521Z,124.93
2022-08-02T00:37:28.751Z,116.70
2022-08-02T00:39:57.554Z,105.68
2022-08-02T00:42:25.079Z,120.65
2022-08-02T00:44:52.344Z,131.60
2022-08-02T00:47:20.074Z,117.88
2022-08-02T00:50:06.655Z,96.47
2022-08-02T00:52:33.821Z,123.70
2022-08-02T00:55:00.999Z,120.57
2022-08-02T00:57:29.150Z,101.20
2022-08-02T00:59:56.058Z,97.97
2022-08-02T01:02:23.081Z,84.35
2022-08-02T01:04:50.107Z,93.55
2022-08-02T01:07:17.390Z,102.25
2022-08-02T01:09:46.257Z,104.82
2022-08-02T01:12:14.597Z,103.60
2022-08-02T01:14:48.656Z,93.78
2022-08-02T01:17:48.602Z,93.72
2022-08-02T01:20:46.966Z,98.57
2022-08-02T01:23:29.413Z,117.75
2022-08-02T01:26:32.524Z,73.75
2022-08-02T01:29:10.859Z,85.65
2022-08-02T01:31:47.561Z,86.90
2022-08-02T01:34:36.117Z,78.25
2022-08-02T01:37:27.437Z,83.53
2022-08-02T01:40:09.574Z,101.55
2022-08-02T01:42:40.342Z,74.40
2022-08-02T01:45:09.354Z,81.18
2022-08-02T01:47:41.556Z,87.88
2022-08-02T01:50:13.898Z,78.63
2022-08-02T01:52:53.573Z,83.20
2022-08-02T01:55:33.642Z,77.00
2022-08-02T01:58:18.182Z,73.82
2022-08-02T02:00:47.448Z,62.10
2022-08-02T02:03:19.507Z,65.70
2022-08-02T02:05:52.302Z,64.35
2022-08-02T02:08:32.236Z,68.72
2022-08-02T02:12:09.429Z,69.75
2022-08-02T02:13:50.319Z,76.78
2022-08-02T02:16:19.427Z,63.10
2022-08-02T02:18:49.112Z,63.85
2022-08-02T02:21:16.860Z,69.20
2022-08-02T02:23:44.250Z,64.47
2022-08-02T02:26:15.213Z,66.53
2022-08-02T02:28:47.663Z,63.60
2022-08-02T02:31:19.357Z,67.43
2022-08-02T02:33:54.987Z,68.00
2022-08-02T02:36:23.679Z,60.13
2022-08-02T02:38:53.231Z,62.63
2022-08-02T02:41:23.732Z,68.45
2022-08-02T02:46:21.626Z,61.08
2022-08-02T02:48:51.687Z,54.97
2022-08-02T02:51:20.021Z,58.58
2022-08-02T02:54:32.903Z,60.03
2022-08-02T02:56:42.644Z,61.45
2022-08-02T02:59:13.112Z,58.92
2022-08-02T03:01:57.243Z,63.13
2022-08-02T03:04:27.228Z,61.15
2022-08-02T03:07:03.591Z,59.40
2022-08-02T03:09:30.871Z,60.90
2022-08-02T03:11:58.225Z,56.00
2022-08-02T03:14:25.629Z,69.30
2022-08-02T03:16:55.427Z,61.50
2022-08-02T03:19:23.742Z,61.38
2022-08-02T03:22:00.668Z,62.17
2022-08-02T03:24:28.529Z,57.40
2022-08-02T03:26:56.311Z,57.50
2022-08-02T03:29:23.678Z,54.58
2022-08-02T03:31:51.272Z,56.35
2022-08-02T03:34:18.863Z,57.67
2022-08-02T03:36:51.622Z,61.75
2022-08-02T03:39:20.941Z,55.45
2022-08-02T03:41:49.545Z,58.65
2022-08-02T03:44:18.404Z,56.03
2022-08-02T03:46:45.960Z,51.60
2022-08-02T03:49:16.752Z,58.00
2022-08-02T03:51:45.633Z,53.15
2022-08-02T03:54:13.476Z,52.50
2022-08-02T03:56:40.799Z,50.97
2022-08-02T03:59:10.056Z,55.10
2022-08-02T04:01:37.432Z,52.33
2022-08-02T04:04:05.336Z,47.35
2022-08-02T04:06:32.867Z,55.58
2022-08-02T04:08:59.974Z,51.85
2022-08-02T04:11:33.211Z,53.85
2022-08-02T04:14:07.466Z,53.35
2022-08-02T04:16:50.626Z,54.08
2022-08-02T04:19:29.238Z,53.35
2022-08-02T04:21:58.044Z,49.88
2022-08-02T04:24:34.446Z,50.40
2022-08-02T04:27:19.167Z,51.33
2022-08-02T04:29:49.679Z,55.92
2022-08-02T04:32:18.203Z,51.05
2022-08-02T04:35:11.160Z,53.38
2022-08-02T04:37:35.096Z,51.60
2022-08-02T04:40:02.556Z,52.38
2022-08-02T04:42:29.626Z,54.22
2022-08-02T04:44:58.081Z,51.60
2022-08-02T04:47:54.318Z,52.53
2022-08-02T04:50:12.483Z,50.03
2022-08-02T04:52:44.000Z,49.47
2022-08-02T04:55:12.803Z,56.95
2022-08-02T04:57:54.853Z,52.08
2022-08-02T05:00:22.491Z,51.13
2022-08-02T05:02:49.967Z,58.60
2022-08-02T05:05:17.080Z,68.85
2022-08-02T05:07:44.556Z,68.93
2022-08-02T05:10:11.704Z,63.50
2022-08-02T05:12:39.753Z,69.68
2022-08-02T05:15:09.233Z,64.45
2022-08-02T05:17:47.805Z,67.45
2022-08-02T05:20:19.168Z,67.43
2022-08-02T05:22:47.105Z,65.15
2022-08-02T05:25:14.820Z,65.97
2022-08-02T05:27:42.145Z,62.03
2022-08-02T05:30:11.147Z,66.38
2022-08-02T05:32:46.224Z,76.80
2022-08-02T05:35:13.473Z,67.43
2022-08-02T05:37:42.175Z,69.18
2022-08-02T05:40:12.887Z,69.87
2022-08-02T05:42:41.278Z,64.47
2022-08-02T05:45:09.388Z,63.17
2022-08-02T05:47:37.457Z,84.00
2022-08-02T05:50:07.937Z,80.53
2022-08-02T05:53:04.704Z,74.35
2022-08-02T05:55:40.124Z,64.57
2022-08-02T05:58:17.039Z,69.85
2022-08-02T06:00:45.664Z,56.50
2022-08-02T06:03:25.969Z,58.13
2022-08-02T06:06:26.041Z,58.33
2022-08-02T06:09:02.504Z,52.88
2022-08-02T06:12:01.524Z,55.20
2022-08-02T06:14:34.016Z,64.90
2022-08-02T06:17:05.263Z,58.65
2022-08-02T06:19:36.580Z,65.22
2022-08-02T06:22:32.907Z,62.58
2022-08-02T06:25:05.610Z,68.95
2022-08-02T06:27:34.478Z,69.37
2022-08-02T06:30:02.653Z,65.50
2022-08-02T06:32:30.232Z,80.18
2022-08-02T06:34:57.219Z,65.32
2022-08-02T06:37:31.289Z,81.13
2022-08-02T06:40:32.369Z,88.82
2022-08-02T06:43:23.306Z,95.00
2022-08-02T06:45:50.701Z,74.40
2022-08-02T06:48:18.007Z,75.00
2022-08-02T06:50:45.090Z,89.78
2022-08-02T06:53:13.077Z,100.15
2022-08-02T06:55:43.997Z,95.07
2022-08-02T06:58:13.061Z,92.43
2022-08-02T07:00:42.313Z,85.18
2022-08-02T07:03:09.605Z,92.53
2022-08-02T07:05:37.002Z,83.38
2022-08-02T07:08:04.597Z,91.75
2022-08-02T07:10:31.994Z,94.95
2022-08-02T07:13:00.052Z,86.18
2022-08-02T07:15:27.361Z,91.55
2022-08-02T07:17:54.528Z,87.47
2022-08-02T07:20:21.514Z,84.97
2022-08-02T07:22:48.815Z,106.20
2022-08-02T07:25:16.507Z,109.50
2022-08-02T07:27:43.758Z,102.63
2022-08-02T07:30:11.491Z,99.38
2022-08-02T07:32:39.260Z,100.43
2022-08-02T07:35:07.699Z,89.80
2022-08-02T07:37:55.449Z,97.28
2022-08-02T07:40:24.952Z,84.25
2022-08-02T07:42:57.753Z,101.88
2022-08-02T07:45:27.999Z,109.93
2022-08-02T07:47:56.914Z,111.18
2022-08-02T07:50:24.488Z,127.05
2022-08-02T07:52:57.084Z,121.63
2022-08-02T07:55:38.997Z,114.32
2022-08-02T07:58:13.434Z,112.57
2022-08-02T08:00:42.732Z,119.57
2022-08-02T08:03:09.804Z,130.07
2022-08-02T08:05:37.105Z,124.45
2022-08-02T08:08:06.137Z,143.57
2022-08-02T08:10:33.516Z,148.27
2022-08-02T08:13:00.625Z,159.85
2022-08-02T08:15:27.685Z,173.18
2022-08-02T08:17:54.794Z,173.82
2022-08-02T08:20:21.915Z,176.10
2022-08-02T08:22:50.239Z,168.07
2022-08-02T08:25:17.343Z,175.32
2022-08-02T08:27:52.151Z,187.82
2022-08-02T08:30:21.158Z,189.10
2022-08-02T08:32:48.385Z,176.10
2022-08-02T08:35:16.026Z,186.85
2022-08-02T08:37:43.199Z,196.93
2022-08-02T08:40:12.408Z,203.95
2022-08-02T08:42:40.896Z,203.65
2022-08-02T08:45:09.136Z,226.15
2022-08-02T08:47:42.967Z,193.30
2022-08-02T08:50:24.568Z,201.27
2022-08-02T08:53:03.857Z,197.23
2022-08-02T08:55:32.187Z,213.18
2022-08-02T08:58:00.623Z,212.43
2022-08-02T09:00:29.737Z,232.75
2022-08-02T09:02:57.118Z,233.60
2022-08-02T09:05:25.264Z,246.45
2022-08-02T09:07:53.541Z,253.43
2022-08-02T09:10:46.193Z,243.07
2022-08-02T09:13:38.775Z,200.98
2022-08-02T09:16:12.157Z,193.05
2022-08-02T09:18:46.344Z,222.20
2022-08-02T09:21:15.774Z,235.50
2022-08-02T09:23:44.525Z,231.23
2022-08-02T09:26:14.943Z,206.35
2022-08-02T09:28:44.118Z,219.93
2022-08-02T09:31:12.282Z,237.00
2022-08-02T09:33:41.283Z,228.35
2022-08-02T09:36:15.244Z,247.45
2022-08-02T09:39:07.809Z,229.07
2022-08-02T09:41:40.816Z,211.65
2022-08-02T09:44:16.065Z,203.27
2022-08-02T09:46:45.194Z,224.27
2022-08-02T09:49:16.856Z,220.05
2022-08-02T09:51:47.156Z,245.00
2022-08-02T09:54:19.755Z,237.43
2022-08-02T09:56:48.322Z,250.32
2022-08-02T09:59:16.833Z,259.00
2022-08-02T10:01:50.897Z,251.15
2022-08-02T10:04:29.923Z,245.05
2022-08-02T10:06:59.653Z,155.35
2022-08-02T10:09:29.119Z,102.68
2022-08-02T10:11:57.069Z,111.65
2022-08-02T10:14:24.411Z,162.63
2022-08-02T10:16:54.638Z,200.73
2022-08-02T10:20:00.718Z,199.30
2022-08-02T10:22:20.565Z,186.73
2022-08-02T10:24:50.516Z,200.70
2022-08-02T10:27:23.153Z,200.45
2022-08-02T10:29:53.988Z,171.45
2022-08-02T10:32:40.229Z,153.23
2022-08-02T10:35:18.562Z,216.95
2022-08-02T10:37:51.043Z,172.73
2022-08-02T10:40:24.497Z,200.93
2022-08-02T10:42:53.637Z,168.85
2022-08-02T10:45:22.419Z,204.15
2022-08-02T10:48:12.236Z,207.45
2022-08-02T10:50:48.489Z,171.48
2022-08-02T10:53:28.922Z,196.98
2022-08-02T10:58:29.722Z,109.32
2022-08-02T11:00:58.094Z,154.90
2022-08-02T11:03:28.315Z,157.88
2022-08-02T11:06:25.957Z,136.68
2022-08-02T11:09:33.202Z,128.63
2022-08-02T11:12:12.220Z,112.80
2022-08-02T11:14:47.015Z,119.18
2022-08-02T11:17:18.719Z,118.32
2022-08-02T11:20:10.596Z,127.20
2022-08-02T11:22:38.269Z,118.25
2022-08-02T11:25:23.910Z,139.32
2022-08-02T11:27:56.756Z,128.52
2022-08-02T11:30:26.403Z,132.65
2022-08-02T11:35:39.237Z,108.75
2022-08-02T11:38:21.281Z,125.05
2022-08-02T11:40:49.431Z,125.65
2022-08-02T11:43:21.234Z,125.10
2022-08-02T11:45:51.075Z,131.15
2022-08-02T11:48:38.726Z,121.05
2022-08-02T11:51:14.346Z,130.95
2022-08-02T11:53:51.046Z,143.43
2022-08-02T11:56:29.565Z,125.07
2022-08-02T11:59:05.679Z,119.35
2022-08-02T12:01:36.693Z,104.95
2022-08-02T12:04:15.715Z,62.65
2022-08-02T12:06:44.715Z,83.13
2022-08-02T12:11:50.379Z,78.70
2022-08-02T12:14:18.209Z,58.83
2022-08-02T12:17:04.467Z,59.08
2022-08-02T12:19:31.746Z,70.95
2022-08-02T12:22:10.827Z,77.20
2022-08-02T12:24:40.305Z,79.57
2022-08-02T12:27:07.992Z,81.65
2022-08-02T12:29:57.917Z,68.60
2022-08-02T12:32:25.288Z,52.88
2022-08-02T12:35:10.206Z,68.45
2022-08-02T12:37:43.038Z,85.45
2022-08-02T12:40:27.097Z,87.05
2022-08-02T12:43:06.430Z,68.53
2022-08-02T12:45:55.157Z,79.90
2022-08-02T12:48:56.534Z,82.22
2022-08-02T12:51:54.783Z,67.13
2022-08-02T12:54:30.986Z,75.05
2022-08-02T12:57:13.869Z,113.03
2022-08-02T12:59:56.043Z,88.95
2022-08-02T13:02:25.675Z,72.93
2022-08-02T13:04:52.791Z,85.60
2022-08-02T13:07:19.932Z,202.43
2022-08-02T13:09:50.175Z,188.63
2022-08-02T13:12:17.820Z,196.85
2022-08-02T13:14:45.015Z,221.13
2022-08-02T13:17:12.143Z,431.10
2022-08-02T13:19:42.285Z,729.80
2022-08-02T13:22:10.649Z,699.42
2022-08-02T13:24:55.308Z,784.72
2022-08-02T13:27:25.213Z,726.75
2022-08-02T13:29:53.493Z,716.88
2022-08-02T13:32:21.040Z,597.03
2022-08-02T13:34:49.185Z,564.40
2022-08-02T13:37:16.499Z,437.42
2022-08-02T13:40:00.170Z,211.68
2022-08-02T13:42:33.348Z,234.88
2022-08-02T13:45:00.480Z,331.13
2022-08-02T13:48:03.590Z,374.73
2022-08-02T13:50:31.717Z,388.20
2022-08-02T13:52:58.876Z,234.15
2022-08-02T13:55:26.215Z,233.68
2022-08-02T13:57:54.562Z,259.77
2022-08-02T14:00:34.667Z,201.18
2022-08-02T14:03:04.888Z,193.40
2022-08-02T14:05:39.340Z,165.93
2022-08-02T14:08:20.756Z,148.65
2022-08-02T14:10:49.344Z,149.93
2022-08-02T14:13:16.904Z,132.93
2022-08-02T14:16:15.379Z,96.55
2022-08-02T14:18:46.694Z,114.68
2022-08-02T14:21:13.891Z,99.22
2022-08-02T14:23:46.872Z,149.70
2022-08-02T14:26:27.536Z,113.90
2022-08-02T14:28:55.945Z,90.25
2022-08-02T14:31:23.109Z,75.88
2022-08-02T14:33:50.284Z,80.07
2022-08-02T14:36:27.448Z,77.72
2022-08-02T14:38:56.407Z,72.00
2022-08-02T14:41:24.055Z,67.38
2022-08-02T14:44:06.183Z,90.57
2022-08-02T14:46:34.914Z,65.15
2022-08-02T14:49:03.661Z,67.10
2022-08-02T14:51:35.632Z,71.20
2022-08-02T14:54:08.618Z,48.67
2022-08-02T14:56:39.741Z,71.47
2022-08-02T14:59:07.166Z,50.90
2022-08-02T15:01:34.708Z,67.32
2022-08-02T15:04:15.523Z,51.58
2022-08-02T15:06:43.130Z,52.88
2022-08-02T15:09:10.390Z,68.82
2022-08-02T15:11:47.804Z,60.92
2022-08-02T15:14:25.301Z,67.30
2022-08-02T15:16:58.889Z,47.53
2022-08-02T15:19:56.647Z,62.17
2022-08-02T15:22:16.202Z,50.10
2022-08-02T15:24:45.245Z,61.40
2022-08-02T15:27:14.381Z,50.28
2022-08-02T15:29:46.249Z,47.55
2022-08-02T15:32:14.352Z,67.68
2022-08-02T15:34:42.055Z,45.45
2022-08-02T15:37:09.209Z,49.95
2022-08-02T15:39:36.961Z,49.50
2022-08-02T15:42:04.814Z,49.65
2022-08-02T15:44:32.107Z,68.93
2022-08-02T15:46:59.200Z,51.13
2022-08-02T15:49:26.730Z,55.72
2022-08-02T15:51:54.722Z,53.60
2022-08-02T15:54:21.891Z,52.78
2022-08-02T15:56:49.050Z,48.65
2022-08-02T15:59:19.521Z,61.78
2022-08-02T16:01:48.064Z,84.10
2022-08-02T16:04:16.317Z,53.17
2022-08-02T16:06:44.339Z,55.35
2022-08-02T16:09:12.015Z,60.97
2022-08-02T16:11:39.530Z,62.67
2022-08-02T16:14:07.058Z,53.53
2022-08-02T16:16:35.501Z,55.67
2022-08-02T16:19:47.850Z,56.47
2022-08-02T16:21:54.061Z,72.57
2022-08-02T16:24:21.614Z,58.30
2022-08-02T16:26:49.336Z,62.30
2022-08-02T16:29:19.039Z,62.05
2022-08-02T16:31:50.149Z,69.35
2022-08-02T16:34:17.969Z,73.22
2022-08-02T16:36:45.872Z,77.03
2022-08-02T16:39:13.347Z,80.80
2022-08-02T16:41:50.909Z,66.88
2022-08-02T16:44:29.051Z,90.47
2022-08-02T16:47:01.242Z,61.63
2022-08-02T16:50:07.151Z,67.22
2022-08-02T16:52:18.772Z,73.82
2022-08-02T16:54:49.446Z,73.20
2022-08-02T16:57:19.788Z,75.90
2022-08-02T17:02:26.711Z,65.13
2022-08-02T17:04:55.386Z,76.97
2022-08-02T17:08:07.929Z,84.55
2022-08-02T17:10:10.032Z,73.80
2022-08-02T17:12:38.205Z,89.30
2022-08-02T17:16:16.541Z,83.97
2022-08-02T17:17:54.037Z,83.10
2022-08-02T17:20:21.249Z,75.40
2022-08-02T17:22:52.081Z,80.45
2022-08-02T17:25:19.696Z,80.68
2022-08-02T17:27:47.075Z,85.47
2022-08-02T17:30:26.738Z,80.35
2022-08-02T17:32:54.599Z,84.10
2022-08-02T17:35:40.035Z,86.75
2022-08-02T17:38:11.164Z,83.03
2022-08-02T17:40:45.113Z,83.13
2022-08-02T17:43:14.673Z,88.63
2022-08-02T17:46:00.957Z,84.43
2022-08-02T17:48:54.989Z,77.85
2022-08-02T17:52:16.003Z,78.32
2022-08-02T17:54:11.434Z,78.20
2022-08-02T17:59:30.723Z,66.25
2022-08-02T18:02:08.479Z,71.75
2022-08-02T18:04:37.922Z,64.65
2022-08-02T18:07:09.628Z,81.10
2022-08-02T18:09:43.347Z,83.05
2022-08-02T18:12:14.473Z,72.30
2022-08-02T18:14:46.027Z,90.25
2022-08-02T18:17:16.635Z,72.55
2022-08-02T18:19:55.478Z,79.65
2022-08-02T18:22:30.556Z,75.72
2022-08-02T18:24:57.696Z,89.88
2022-08-02T18:27:24.825Z,72.50
2022-08-02T18:30:00.299Z,68.82
2022-08-02T18:33:58.737Z,77.50
2022-08-02T18:35:19.988Z,77.05
2022-08-02T18:40:36.104Z,70.20
2022-08-02T18:43:03.610Z,100.97
2022-08-02T18:45:36.861Z,98.32
2022-08-02T18:48:22.348Z,71.75
2022-08-02T18:50:53.529Z,82.95
2022-08-02T18:53:39.034Z,99.63
2022-08-02T18:56:20.473Z,82.20
2022-08-02T18:58:53.157Z,67.50
2022-08-02T19:01:33.526Z,84.75
2022-08-02T19:04:04.771Z,92.50
2022-08-02T19:06:32.715Z,75.72
2022-08-02T19:09:12.842Z,75.57
2022-08-02T19:11:47.551Z,99.78
2022-08-02T19:14:27.311Z,82.00
2022-08-02T19:16:59.583Z,78.22
2022-08-02T19:19:29.078Z,78.90
2022-08-02T19:22:18.296Z,109.68
2022-08-02T19:24:50.323Z,97.65
2022-08-02T19:30:07.475Z,83.25
2022-08-02T19:32:41.502Z,74.65
2022-08-02T19:35:29.702Z,78.97
2022-08-02T19:38:07.423Z,82.30
2022-08-02T19:40:34.664Z,78.15
2022-08-02T19:44:21.048Z,83.95
2022-08-02T19:45:50.936Z,98.97
2022-08-02T19:48:24.159Z,87.13
2022-08-02T19:51:00.670Z,81.45
2022-08-02T19:53:47.406Z,79.25
2022-08-02T19:56:20.516Z,81.13
2022-08-02T19:58:51.421Z,88.43
2022-08-02T20:01:23.487Z,96.65
2022-08-02T20:03:53.076Z,91.03
2022-08-02T20:06:29.976Z,79.80
2022-08-02T20:09:00.935Z,91.65
2022-08-02T20:14:16.505Z,88.18
2022-08-02T20:16:43.881Z,100.32
2022-08-02T20:19:13.982Z,99.20
2022-08-02T20:21:42.814Z,100.53
2022-08-02T20:24:13.666Z,86.43
2022-08-02T20:26:47.269Z,88.25
2022-08-02T20:29:17.495Z,96.60
2022-08-02T20:32:04.873Z,84.00
2022-08-02T20:34:33.648Z,92.53
2022-08-02T20:37:59.538Z,90.57
2022-08-02T20:39:51.916Z,97.97
2022-08-02T20:42:23.127Z,92.00
2022-08-02T20:44:54.693Z,102.60
2022-08-02T20:50:49.335Z,98.03
2022-08-02T20:53:23.593Z,86.90
2022-08-02T20:55:55.017Z,96.35
2022-08-02T20:58:27.299Z,100.80
2022-08-02T21:00:58.997Z,107.85
2022-08-02T21:03:38.887Z,102.90
2022-08-02T21:06:08.372Z,99.05
2022-08-02T21:08:35.510Z,94.75
2022-08-02T21:13:47.282Z,76.20
2022-08-02T21:16:27.395Z,78.97
2022-08-02T21:19:00.180Z,87.72
2022-08-02T21:21:43.016Z,83.07
2022-08-02T21:24:12.324Z,93.45
2022-08-02T21:26:39.559Z,100.45
2022-08-02T21:29:07.435Z,106.88
2022-08-02T21:31:36.514Z,104.38
2022-08-02T21:34:07.539Z,109.22
2022-08-02T21:36:49.465Z,96.63
2022-08-02T21:39:17.978Z,104.50
2022-08-02T21:41:46.622Z,117.03
2022-08-02T21:44:21.812Z,107.15
2022-08-02T21:46:52.406Z,103.57
2022-08-02T21:51:49.327Z,84.28
2022-08-02T21:54:21.319Z,96.95
2022-08-02T21:56:52.846Z,100.05
2022-08-02T21:59:25.349Z,110.88
2022-08-02T22:01:56.797Z,106.00
2022-08-02T22:04:47.698Z,103.63
2022-08-02T22:07:23.982Z,102.63
2022-08-02T22:09:52.768Z,103.05
2022-08-02T22:12:20.792Z,104.85
2022-08-02T22:14:55.085Z,105.88
2022-08-02T22:17:50.737Z,97.32
2022-08-02T22:20:18.342Z,99.25
2022-08-02T22:22:50.422Z,102.18
2022-08-02T22:25:27.185Z,106.05
2022-08-02T22:28:37.414Z,111.55
2022-08-02T22:30:54.803Z,108.22
2022-08-02T22:33:47.224Z,104.10
2022-08-02T22:36:28.601Z,96.25
2022-08-02T22:38:55.911Z,109.90
2022-08-02T22:41:23.133Z,108.57
2022-08-02T22:43:50.653Z,121.65
2022-08-02T22:46:18.013Z,113.50
2022-08-02T22:48:45.758Z,105.63
2022-08-02T22:51:14.003Z,111.40
2022-08-02T22:53:42.539Z,107.68
2022-08-02T22:56:10.308Z,110.05
2022-08-02T22:58:41.052Z,60.08
2022-08-02T22:58:56.233Z,102.95
2022-08-02T22:59:00.376Z,81.20
2022-08-02T22:59:07.950Z,93.32
2022-08-02T23:01:24.821Z,107.72
2022-08-02T23:03:51.937Z,110.55
2022-08-02T23:06:22.528Z,115.28
2022-08-02T23:08:50.242Z,116.03
2022-08-02T23:11:17.368Z,116.68
2022-08-02T23:13:45.521Z,101.68
2022-08-02T23:16:31.029Z,93.95
2022-08-02T23:19:16.896Z,106.30
2022-08-02T23:22:01.040Z,107.63
2022-08-02T23:24:33.284Z,106.07
2022-08-02T23:27:01.204Z,112.07
2022-08-02T23:29:28.310Z,102.72
2022-08-02T23:31:55.665Z,111.15
2022-08-02T23:34:22.872Z,111.15
2022-08-02T23:36:50.040Z,117.93
2022-08-02T23:39:17.226Z,114.75
2022-08-02T23:41:44.270Z,113.95
2022-08-02T23:44:14.416Z,107.90
2022-08-02T23:46:46.981Z,108.45
2022-08-02T23:49:14.703Z,105.57
2022-08-02T23:51:43.462Z,106.95
2022-08-02T23:54:11.714Z,109.15
2022-08-02T23:56:39.762Z,120.60
2022-08-02T23:59:10.643Z,120.55
